Time;durP1;ratioP1;P1;durP2;ratioP2;P2;SDS_P1;SDS_P2;PMS_P1;PMS_P2;Temp;Humidity;BMP_temperature;BMP_pressure;BME280_temperature;BME280_humidity;BME280_pressure;Samples;Min_cycle;Max_cycle;Signal;HPM_P1;HPM_P2
2022/01/28 00:01:07;;;;;;;194.53;104.73;;;51.90;2227.20;;;;;;5075752;28;20073;-72
2022/01/28 00:03:39;;;;;;;210.03;111.90;;;51.90;2227.20;;;;;;5075537;28;20031;-72
2022/01/28 00:06:07;;;;;;;179.67;97.97;;;51.90;2227.20;;;;;;5075944;28;20112;-73
2022/01/28 00:08:33;;;;;;;179.33;95.67;;;51.90;2227.20;;;;;;5075341;28;20052;-72
2022/01/28 00:10:59;;;;;;;171.70;93.47;;;51.90;2227.20;;;;;;5074815;28;20029;-72
2022/01/28 00:40:25;;;;;;;112.18;59.75;;;76.80;2227.20;;;;;;5074959;28;20368;-74
2022/01/28 00:42:51;;;;;;;104.70;58.10;;;76.80;2227.20;;;;;;5075195;28;20047;-73
2022/01/28 00:45:17;;;;;;;105.27;57.60;;;76.90;2227.20;;;;;;5074892;28;20381;-73
2022/01/28 00:47:44;;;;;;;107.77;57.60;;;76.90;2227.20;;;;;;5074511;28;20369;-73
2022/01/28 00:50:10;;;;;;;109.57;58.53;;;77.00;2227.20;;;;;;5074788;28;20020;-73
2022/01/28 00:52:36;;;;;;;99.43;55.83;;;77.00;2227.20;;;;;;5074769;28;20024;-73
2022/01/28 00:55:03;;;;;;;99.10;53.63;;;77.00;2227.20;;;;;;5074656;28;20484;-73
2022/01/28 00:57:29;;;;;;;104.20;56.57;;;77.00;2227.20;;;;;;5074364;28;20043;-67
2022/01/28 00:59:54;;;;;;;121.50;68.07;;;77.00;2227.20;;;;;;5074550;28;20095;-73
2022/01/28 01:02:20;;;;;;;122.63;68.20;;;77.00;2227.20;;;;;;5074475;28;20120;-73
2022/01/28 01:04:46;;;;;;;117.07;62.53;;;77.00;2227.20;;;;;;5074464;28;20035;-73
2022/01/28 01:07:12;;;;;;;116.30;63.03;;;77.10;2227.20;;;;;;5074438;28;20029;-73
2022/01/28 01:09:38;;;;;;;108.77;58.10;;;77.00;2227.20;;;;;;5074043;28;20040;-73
2022/01/28 01:12:04;;;;;;;114.07;60.00;;;77.00;2227.20;;;;;;5074595;28;20029;-72
2022/01/28 01:14:30;;;;;;;115.67;59.67;;;77.10;2227.20;;;;;;5074370;28;20059;-72
2022/01/28 01:17:07;;;;;;;116.53;61.50;;;77.00;2227.20;;;;;;5074295;28;20323;-73
2022/01/28 01:19:38;;;;;;;121.17;64.80;;;77.00;2227.20;;;;;;5073904;28;20476;-73
2022/01/28 01:22:05;;;;;;;114.17;63.13;;;77.00;2227.20;;;;;;5073959;28;20068;-73
2022/01/28 01:24:36;;;;;;;118.53;63.00;;;77.00;2227.20;;;;;;5073146;28;20077;-72
2022/01/28 01:27:03;;;;;;;119.43;64.10;;;76.90;2227.20;;;;;;5073994;28;20089;-73
2022/01/28 01:29:29;;;;;;;135.43;69.00;;;76.90;2227.20;;;;;;5073666;28;20074;-72
2022/01/28 01:32:03;;;;;;;137.77;72.87;;;76.80;2227.20;;;;;;5073861;28;20500;-73
2022/01/28 01:34:29;;;;;;;133.20;76.33;;;52.10;2227.20;;;;;;5074112;28;20377;-69
2022/01/28 01:36:55;;;;;;;157.27;82.57;;;52.10;2227.20;;;;;;5073980;28;20056;-73
2022/01/28 01:39:24;;;;;;;158.83;89.60;;;52.10;2227.20;;;;;;5073625;28;20067;-73
2022/01/28 01:42:05;;;;;;;165.07;89.93;;;52.10;2227.20;;;;;;5073859;28;20040;-73
2022/01/28 01:52:41;;;;;;;154.57;84.33;;;52.10;2227.20;;;;;;5073766;28;20047;-73
2022/01/28 01:55:08;;;;;;;164.73;90.73;;;52.00;2227.20;;;;;;5072280;28;20020;-73
2022/01/28 01:57:34;;;;;;;158.33;84.73;;;52.00;2227.20;;;;;;5073415;28;20025;-73
2022/01/28 02:00:01;;;;;;;153.93;85.63;;;51.90;2227.20;;;;;;5073232;28;20075;-73
2022/01/28 02:02:26;;;;;;;170.90;92.27;;;51.80;2227.20;;;;;;5073637;28;20036;-73
2022/01/28 02:04:52;;;;;;;168.80;90.60;;;51.80;2227.20;;;;;;5073501;28;20381;-73
2022/01/28 02:07:19;;;;;;;165.87;88.63;;;51.70;2227.20;;;;;;5073490;28;20032;-73
2022/01/28 02:09:44;;;;;;;148.13;79.93;;;51.60;2227.20;;;;;;5071828;28;20028;-73
2022/01/28 02:12:10;;;;;;;145.37;77.07;;;51.60;2227.20;;;;;;5073304;28;20153;-70
2022/01/28 02:14:36;;;;;;;133.63;75.60;;;51.50;2227.20;;;;;;5073091;28;20044;-73
2022/01/28 02:17:04;;;;;;;130.00;69.07;;;51.60;2227.20;;;;;;5073287;28;20025;-73
2022/01/28 02:19:29;;;;;;;129.27;70.00;;;51.60;2227.20;;;;;;5073206;28;20385;-72
2022/01/28 02:21:55;;;;;;;130.00;70.77;;;51.60;2227.20;;;;;;5073385;28;20036;-73
2022/01/28 02:24:28;;;;;;;127.33;69.47;;;51.60;2227.20;;;;;;5073368;28;20449;-72
2022/01/28 02:26:54;;;;;;;119.18;65.82;;;51.60;2227.20;;;;;;5073368;28;20024;-73
2022/01/28 02:29:29;;;;;;;127.73;70.20;;;51.60;2227.20;;;;;;5073114;28;20035;-65
2022/01/28 02:31:56;;;;;;;119.43;64.60;;;51.60;2227.20;;;;;;5071814;28;20116;-72
2022/01/28 02:34:22;;;;;;;134.03;67.53;;;51.50;2227.20;;;;;;5072743;28;20025;-73
2022/01/28 02:36:48;;;;;;;120.67;64.47;;;51.50;2227.20;;;;;;5073095;28;20012;-73
2022/01/28 02:39:14;;;;;;;128.07;68.40;;;51.50;2227.20;;;;;;5072836;28;20112;-73
2022/01/28 02:41:44;;;;;;;122.43;65.23;;;51.40;2227.20;;;;;;5072882;28;20036;-71
2022/01/28 02:44:25;;;;;;;130.60;68.57;;;51.50;2227.20;;;;;;5073487;28;20041;-73
2022/01/28 02:47:13;;;;;;;125.47;66.73;;;51.40;2227.20;;;;;;5072948;28;20035;-73
2022/01/28 02:49:39;;;;;;;129.73;69.07;;;51.40;2227.20;;;;;;5072975;28;20430;-68
2022/01/28 02:52:05;;;;;;;124.80;65.63;;;51.40;2227.20;;;;;;5072958;28;20103;-73
2022/01/28 02:54:39;;;;;;;136.83;68.40;;;51.30;2227.20;;;;;;5072952;28;20055;-73
2022/01/28 02:57:06;;;;;;;131.73;67.93;;;51.30;2227.20;;;;;;5073134;28;20036;-73
2022/01/28 02:59:32;;;;;;;136.07;72.00;;;51.20;2227.20;;;;;;5072492;28;20083;-74
2022/01/28 03:01:58;;;;;;;136.47;70.77;;;51.20;2227.20;;;;;;5072656;28;20040;-73
2022/01/28 03:04:54;;;;;;;130.10;70.27;;;51.30;2227.20;;;;;;5073097;28;20108;-73
2022/01/28 03:07:09;;;;;;;132.63;68.60;;;51.20;2227.20;;;;;;5072657;28;20024;-67
2022/01/28 03:12:31;;;;;;;126.93;67.80;;;51.20;2227.20;;;;;;5041443;28;20047;-72
2022/01/28 03:15:05;;;;;;;126.93;65.60;;;51.30;2227.20;;;;;;5072686;28;20045;-73
2022/01/28 03:20:33;;;;;;;117.93;64.57;;;51.30;2227.20;;;;;;5072470;28;20504;-73
2022/01/28 03:22:59;;;;;;;123.37;62.87;;;51.30;2227.20;;;;;;5072914;28;20453;-70
2022/01/28 03:25:25;;;;;;;116.40;62.63;;;51.20;2227.20;;;;;;5072542;28;20099;-73
2022/01/28 03:27:52;;;;;;;110.33;58.97;;;51.30;2227.20;;;;;;5072416;28;20060;-72
2022/01/28 03:30:19;;;;;;;104.03;58.63;;;51.30;2227.20;;;;;;5072359;28;20032;-73
2022/01/28 03:32:45;;;;;;;96.87;56.60;;;51.30;2227.20;;;;;;5072577;28;20032;-73
2022/01/28 03:35:15;;;;;;;104.30;59.13;;;51.30;2227.20;;;;;;5072561;28;20028;-73
2022/01/28 03:37:41;;;;;;;94.57;54.87;;;51.30;2227.20;;;;;;5072648;28;20111;-73
2022/01/28 03:40:08;;;;;;;104.67;57.87;;;51.40;2227.20;;;;;;5072472;28;20104;-69
2022/01/28 03:42:38;;;;;;;103.80;58.00;;;51.40;2227.20;;;;;;5072344;28;20119;-73
2022/01/28 03:45:05;;;;;;;102.23;56.97;;;51.40;2227.20;;;;;;5072695;28;20025;-72
2022/01/28 03:47:32;;;;;;;93.53;54.03;;;51.40;2227.20;;;;;;5074725;28;20032;-73
2022/01/28 03:49:58;;;;;;;96.03;53.80;;;51.50;2227.20;;;;;;5075908;28;20469;-73
2022/01/28 03:52:23;;;;;;;100.87;52.73;;;51.40;2227.20;;;;;;5074468;28;20021;-73
2022/01/28 03:54:49;;;;;;;91.70;52.43;;;51.50;2227.20;;;;;;5075916;28;20032;-73
2022/01/28 03:57:15;;;;;;;90.70;52.53;;;51.50;2227.20;;;;;;5075759;28;20021;-72
2022/01/28 03:59:41;;;;;;;89.87;51.53;;;51.60;2227.20;;;;;;5075651;28;20154;-73
2022/01/28 04:02:07;;;;;;;91.13;50.80;;;51.70;2227.20;;;;;;5075602;28;20104;-73
2022/01/28 04:12:36;;;;;;;75.97;43.57;;;51.80;2227.20;;;;;;5075643;28;20032;-73
2022/01/28 04:17:27;;;;;;;81.47;47.17;;;51.90;2227.20;;;;;;5075791;28;20025;-72
2022/01/28 04:19:53;;;;;;;84.33;49.20;;;51.90;2227.20;;;;;;5075266;28;20102;-73
2022/01/28 04:22:20;;;;;;;85.07;49.13;;;51.90;2227.20;;;;;;5075190;28;20064;-70
2022/01/28 04:24:46;;;;;;;80.60;46.33;;;51.90;2227.20;;;;;;5075421;28;20013;-73
2022/01/28 04:27:12;;;;;;;84.30;48.30;;;51.90;2227.20;;;;;;5075320;28;20028;-73
2022/01/28 04:29:38;;;;;;;85.20;47.90;;;51.90;2227.20;;;;;;5075403;28;20029;-73
2022/01/28 04:32:04;;;;;;;96.13;52.03;;;51.90;2227.20;;;;;;5074990;28;20059;-73
2022/01/28 04:34:30;;;;;;;85.77;44.03;;;51.90;2227.20;;;;;;5075345;28;20028;-73
2022/01/28 04:37:07;;;;;;;85.17;44.27;;;51.90;2227.20;;;;;;5075002;28;20028;-72
2022/01/28 04:39:43;;;;;;;78.17;43.50;;;51.90;2227.20;;;;;;5074982;28;20508;-73
2022/01/28 04:42:45;;;;;;;71.37;40.40;;;51.90;2227.20;;;;;;5074875;28;20032;-73
2022/01/28 04:50:22;;;;;;;71.57;41.73;;;51.90;2227.20;;;;;;5075072;28;20028;-73
2022/01/28 04:53:04;;;;;;;75.47;42.10;;;51.90;2227.20;;;;;;5073927;28;20035;-72
2022/01/28 05:00:41;;;;;;;73.53;41.73;;;51.90;2227.20;;;;;;5074791;28;20102;-74
2022/01/28 05:16:56;;;;;;;67.33;40.30;;;52.00;2227.20;;;;;;5074113;28;20142;-67
2022/01/28 05:27:09;;;;;;;66.00;39.27;;;52.10;2227.20;;;;;;5074358;28;20461;-73
2022/01/28 05:29:31;;;;;;;66.40;39.10;;;52.10;2227.20;;;;;;5073419;28;20374;-71
2022/01/28 05:31:57;;;;;;;72.87;42.77;;;52.10;2227.20;;;;;;5073863;28;20035;-70
2022/01/28 05:34:28;;;;;;;72.37;42.47;;;76.80;2227.20;;;;;;5073916;28;20482;-73
2022/01/28 05:36:55;;;;;;;72.17;41.87;;;76.80;2227.20;;;;;;5073922;28;20036;-72
2022/01/28 05:39:21;;;;;;;75.43;41.17;;;76.90;2227.20;;;;;;5073866;28;20461;-72
2022/01/28 05:41:47;;;;;;;68.67;40.13;;;77.00;2227.20;;;;;;5073640;28;20112;-72
2022/01/28 05:44:13;;;;;;;65.57;39.23;;;77.00;2227.20;;;;;;5073608;28;20473;-73
2022/01/28 05:46:39;;;;;;;61.50;37.90;;;77.10;2227.20;;;;;;5073724;28;20039;-73
2022/01/28 05:49:05;;;;;;;59.80;35.80;;;77.10;2227.20;;;;;;5073684;28;20028;-73
2022/01/28 05:51:31;;;;;;;62.87;37.60;;;77.20;2227.20;;;;;;5073790;28;20032;-68
2022/01/28 05:53:58;;;;;;;63.57;36.53;;;77.20;2227.20;;;;;;5073661;28;20021;-73
2022/01/28 05:56:27;;;;;;;60.33;36.20;;;77.30;2227.20;;;;;;5073480;28;20024;-73
2022/01/28 05:58:54;;;;;;;59.27;34.03;;;77.30;2227.20;;;;;;5073468;28;20036;-72
2022/01/28 06:01:20;;;;;;;54.83;33.70;;;77.30;2227.20;;;;;;5073621;28;20491;-72
2022/01/28 06:03:47;;;;;;;57.40;35.93;;;77.40;2227.20;;;;;;5073226;28;20069;-73
2022/01/28 06:06:19;;;;;;;64.37;39.67;;;77.40;2227.20;;;;;;5073333;28;20029;-73
2022/01/28 06:08:50;;;;;;;70.47;39.30;;;77.40;2227.20;;;;;;5073132;28;20016;-73
2022/01/28 06:11:16;;;;;;;60.87;36.73;;;77.50;2227.20;;;;;;5073261;28;20373;-73
2022/01/28 06:13:42;;;;;;;62.67;36.40;;;77.50;2227.20;;;;;;5073016;28;20026;-73
2022/01/28 06:16:12;;;;;;;61.00;38.13;;;77.50;2227.20;;;;;;5073330;28;20044;-72
2022/01/28 06:18:38;;;;;;;65.87;39.93;;;77.50;2227.20;;;;;;5073271;28;20021;-73
2022/01/28 06:21:05;;;;;;;72.67;41.67;;;77.40;2227.20;;;;;;5073455;28;20366;-72
2022/01/28 06:23:32;;;;;;;63.93;38.73;;;77.40;2227.20;;;;;;5072854;28;20029;-73
2022/01/28 06:25:58;;;;;;;70.23;42.30;;;77.40;2227.20;;;;;;5073228;28;20031;-66
2022/01/28 06:28:23;;;;;;;70.17;41.87;;;77.40;2227.20;;;;;;5073513;28;20378;-72
2022/01/28 06:30:49;;;;;;;72.23;44.00;;;77.20;2227.20;;;;;;5073100;28;20035;-67
2022/01/28 06:33:15;;;;;;;76.57;46.33;;;77.30;2227.20;;;;;;5073103;28;20124;-73
2022/01/28 06:35:42;;;;;;;75.33;44.00;;;77.30;2227.20;;;;;;5072903;28;20064;-73
2022/01/28 06:38:09;;;;;;;77.90;47.27;;;77.20;2227.20;;;;;;5073150;28;20020;-73
2022/01/28 06:40:35;;;;;;;80.13;46.43;;;77.20;2227.20;;;;;;5073074;28;20031;-73
2022/01/28 06:43:01;;;;;;;81.77;45.27;;;77.20;2227.20;;;;;;5072999;28;20107;-74
2022/01/28 06:45:27;;;;;;;83.60;51.77;;;77.20;2227.20;;;;;;5072784;28;20027;-73
2022/01/28 06:47:53;;;;;;;91.23;60.07;;;77.20;2227.20;;;;;;5072865;28;20033;-72
2022/01/28 06:50:19;;;;;;;118.93;86.37;;;77.20;2227.20;;;;;;5072893;28;20492;-69
2022/01/28 06:52:45;;;;;;;79.33;50.60;;;77.20;2227.20;;;;;;5072840;28;20108;-73
2022/01/28 06:55:14;;;;;;;74.90;46.90;;;77.20;2227.20;;;;;;5072784;28;20075;-71
2022/01/28 06:57:40;;;;;;;84.93;50.73;;;77.10;2227.20;;;;;;5072815;28;20028;-72
2022/01/28 07:00:09;;;;;;;81.07;50.37;;;77.20;2227.20;;;;;;5072806;28;20020;-72
2022/01/28 07:02:35;;;;;;;101.70;65.67;;;77.20;2227.20;;;;;;5073024;28;20463;-73
2022/01/28 07:05:01;;;;;;;143.77;90.97;;;77.20;2227.20;;;;;;5072637;28;20108;-72
2022/01/28 07:07:27;;;;;;;103.77;64.40;;;77.30;2227.20;;;;;;5072869;28;20054;-68
2022/01/28 07:09:53;;;;;;;63.83;39.93;;;77.30;2227.20;;;;;;5072673;28;20024;-73
2022/01/28 07:12:20;;;;;;;90.27;50.63;;;77.40;2227.20;;;;;;5072971;28;20434;-68
2022/01/28 07:14:47;;;;;;;124.63;66.47;;;77.50;2227.20;;;;;;5072802;28;20044;-73
2022/01/28 07:17:13;;;;;;;98.83;58.47;;;77.40;2227.20;;;;;;5072642;28;20029;-73
2022/01/28 07:19:39;;;;;;;101.20;62.27;;;77.40;2227.20;;;;;;5072609;28;20028;-73
2022/01/28 07:22:06;;;;;;;84.30;50.00;;;77.40;2227.20;;;;;;5075798;28;20036;-72
2022/01/28 07:24:32;;;;;;;71.20;43.23;;;77.40;2227.20;;;;;;5076138;28;20024;-73
2022/01/28 07:26:58;;;;;;;75.37;44.67;;;77.40;2227.20;;;;;;5076410;28;20052;-73
2022/01/28 07:29:28;;;;;;;75.00;44.63;;;77.50;2227.20;;;;;;5076252;28;20056;-73
2022/01/28 07:31:54;;;;;;;93.50;50.47;;;77.50;2227.20;;;;;;5076121;28;20472;-73
2022/01/28 07:34:20;;;;;;;88.97;49.63;;;77.60;2227.20;;;;;;5075674;28;20032;-73
2022/01/28 07:36:46;;;;;;;70.73;42.93;;;77.70;2227.20;;;;;;5076198;28;20031;-72
2022/01/28 07:39:12;;;;;;;72.90;42.87;;;77.60;2227.20;;;;;;5076019;28;20063;-71
2022/01/28 07:41:39;;;;;;;74.17;43.60;;;77.70;2227.20;;;;;;5075968;28;20040;-73
2022/01/28 07:44:05;;;;;;;73.33;41.93;;;77.70;2227.20;;;;;;5075813;28;20485;-73
2022/01/28 07:46:32;;;;;;;97.07;65.90;;;102.40;2227.20;;;;;;5075923;28;20021;-72
2022/01/28 07:48:58;;;;;;;87.17;56.00;;;102.40;2227.20;;;;;;5075947;28;20382;-73
2022/01/28 07:51:24;;;;;;;102.93;63.43;;;102.40;2227.20;;;;;;5076067;28;20102;-73
2022/01/28 07:53:50;;;;;;;65.10;39.67;;;102.50;2227.20;;;;;;5075593;28;20075;-69
2022/01/28 07:56:16;;;;;;;65.40;39.43;;;102.50;2227.20;;;;;;5075639;28;20388;-73
2022/01/28 07:58:42;;;;;;;63.70;38.80;;;102.50;2227.20;;;;;;5076088;28;20025;-73
2022/01/28 08:01:08;;;;;;;87.97;46.37;;;102.60;2227.20;;;;;;5075651;28;20101;-73
2022/01/28 08:03:34;;;;;;;103.10;48.60;;;102.60;2227.20;;;;;;5075304;28;20506;-72
2022/01/28 08:06:00;;;;;;;101.40;49.93;;;102.60;2227.20;;;;;;5075640;28;20024;-70
2022/01/28 08:08:26;;;;;;;80.45;43.55;;;102.80;2227.20;;;;;;5075703;28;20021;-73
2022/01/28 08:10:52;;;;;;;172.43;77.87;;;102.90;2227.20;;;;;;5075312;28;20123;-72
2022/01/28 08:13:18;;;;;;;167.53;73.53;;;103.00;2227.20;;;;;;5076415;28;20017;-72
2022/01/28 08:15:44;;;;;;;114.05;63.78;;;103.10;2227.20;;;;;;5073768;28;20452;-73
2022/01/28 08:18:11;;;;;;;84.57;49.43;;;128.10;2252.80;;;;;;5074504;28;20054;-68
2022/01/28 08:20:37;;;;;;;64.97;38.00;;;128.10;2252.80;;;;;;5074807;28;20449;-69
2022/01/28 08:23:04;;;;;;;61.30;37.73;;;128.20;2252.80;;;;;;5074818;28;20021;-73
2022/01/28 08:25:32;;;;;;;58.35;35.42;;;128.30;2252.80;;;;;;5074579;28;20043;-69
2022/01/28 08:27:59;;;;;;;69.15;42.33;;;128.40;2252.80;;;;;;5074476;28;20028;-73
2022/01/28 08:30:26;;;;;;;68.32;42.65;;;128.60;2252.80;;;;;;5074106;28;20023;-68
2022/01/28 08:32:53;;;;;;;138.17;94.83;;;128.70;2252.80;;;;;;5071932;28;20141;-71
2022/01/28 08:35:30;;;;;;;121.95;73.82;;;128.80;2252.80;;;;;;5073711;28;20045;-69
2022/01/28 08:37:57;;;;;;;68.22;36.53;;;128.80;2252.80;;;;;;5074344;28;20037;-71
2022/01/28 08:40:25;;;;;;;65.40;34.28;;;128.80;2252.80;;;;;;5074057;28;20063;-73
2022/01/28 08:42:51;;;;;;;53.50;31.55;;;128.70;2252.80;;;;;;5074479;28;20507;-74
2022/01/28 08:45:16;;;;;;;56.65;30.98;;;128.90;2252.80;;;;;;5074284;28;20017;-74
2022/01/28 08:47:42;;;;;;;50.85;30.58;;;128.90;2252.80;;;;;;5074449;28;20017;-73
2022/01/28 08:50:09;;;;;;;51.50;28.88;;;153.80;2252.80;;;;;;5074303;28;20469;-73
2022/01/28 08:52:35;;;;;;;53.03;30.15;;;;;;;;;;5074077;28;20036;-72
2022/01/28 08:55:03;;;;;;;50.90;30.17;;;154.20;2252.80;;;;;;5073394;28;20017;-73
2022/01/28 08:57:29;;;;;;;47.45;28.45;;;154.40;2252.80;;;;;;5071859;28;20032;-73
2022/01/28 08:59:56;;;;;;;41.55;26.90;;;179.20;2252.80;;;;;;5072102;28;20350;-74
2022/01/28 09:02:21;;;;;;;47.78;27.58;;;179.50;2252.80;;;;;;5072607;28;20389;-73
2022/01/28 09:04:48;;;;;;;41.42;25.15;;;179.70;2252.80;;;;;;5072505;28;20027;-73
2022/01/28 09:07:14;;;;;;;47.42;27.25;;;179.70;2252.80;;;;;;5073568;28;20028;-73
2022/01/28 09:09:48;;;;;;;45.22;26.10;;;179.90;2252.80;;;;;;5073963;28;20443;-67
2022/01/28 09:14:57;;;;;;;44.03;26.02;;;205.00;2252.80;;;;;;5074030;28;20057;-73
2022/01/28 09:17:24;;;;;;;75.30;47.97;;;205.30;2252.80;;;;;;5073696;28;20040;-72
2022/01/28 09:19:50;;;;;;;44.63;29.35;;;205.40;2252.80;;;;;;5073767;28;20400;-72
2022/01/28 09:22:16;;;;;;;37.03;19.63;;;205.60;2201.60;;;;;;5073399;28;20033;-73
2022/01/28 09:24:42;;;;;;;45.53;26.42;;;205.60;2201.60;;;;;;5073289;28;20031;-72
2022/01/28 09:27:08;;;;;;;39.47;21.95;;;205.50;2227.20;;;;;;5073046;28;20060;-74
2022/01/28 09:29:34;;;;;;;58.85;31.63;;;205.40;2227.20;;;;;;5073211;28;20059;-74
2022/01/28 09:32:00;;;;;;;44.65;26.02;;;205.70;2227.20;;;;;;5073161;28;20021;-70
2022/01/28 09:34:27;;;;;;;38.08;21.75;;;230.60;2124.80;;;;;;5073028;28;20380;-73
2022/01/28 09:36:53;;;;;;;34.13;20.83;;;231.10;2048.00;;;;;;5072849;28;20028;-73
2022/01/28 09:39:20;;;;;;;36.15;20.95;;;281.60;1894.40;;;;;;5072857;28;20025;-73
2022/01/28 09:41:48;;;;;;;33.60;21.50;;;307.40;1740.80;;;;;;5073108;28;20059;-69
2022/01/28 09:44:18;;;;;;;37.35;23.08;;;307.30;1740.80;;;;;;5071482;28;20031;-73
2022/01/28 09:46:45;;;;;;;34.72;21.13;;;333.00;1689.60;;;;;;5073323;28;20511;-73
2022/01/28 09:49:12;;;;;;;27.90;17.95;;;359.30;1484.80;;;;;;5073227;28;20024;-73
2022/01/28 09:51:38;;;;;;;31.38;20.08;;;384.60;1382.40;;;;;;5071529;28;20409;-74
2022/01/28 09:54:04;;;;;;;33.20;21.05;;;359.10;1408.00;;;;;;5073066;28;20029;-73
2022/01/28 09:56:31;;;;;;;19.92;12.38;;;333.50;1510.40;;;;;;5072154;28;20028;-75
2022/01/28 09:58:58;;;;;;;23.90;14.95;;;307.90;1484.80;;;;;;5073134;28;20567;-72
2022/01/28 10:01:25;;;;;;;12.63;7.95;;;307.20;1561.60;;;;;;5072445;28;20059;-74
2022/01/28 10:04:05;;;;;;;14.13;6.70;;;256.90;1561.60;;;;;;5072815;28;20125;-73
2022/01/28 10:06:35;;;;;;;13.98;6.40;;;256.40;1587.20;;;;;;5072396;28;20381;-74
2022/01/28 10:09:12;;;;;;;52.22;29.83;;;231.10;1664.00;;;;;;5072042;28;20384;-73
2022/01/28 10:11:39;;;;;;;20.10;11.85;;;231.00;1689.60;;;;;;5072711;28;20098;-73
2022/01/28 10:14:16;;;;;;;21.10;10.38;;;230.70;1715.20;;;;;;5072741;28;20032;-74
2022/01/28 10:16:42;;;;;;;39.08;18.55;;;230.60;1740.80;;;;;;5073072;28;20021;-70
2022/01/28 10:19:11;;;;;;;22.38;12.95;;;230.60;1792.00;;;;;;5073029;28;20111;-74
2022/01/28 10:21:47;;;;;;;31.98;13.82;;;230.50;1817.60;;;;;;5072981;28;20032;-85
2022/01/28 10:24:15;;;;;;;30.90;15.65;;;230.60;1843.20;;;;;;5072947;28;20025;-74
2022/01/28 10:26:44;;;;;;;31.35;18.25;;;230.70;1817.60;;;;;;5072070;28;20052;-72
2022/01/28 10:29:16;;;;;;;32.30;18.95;;;230.70;1843.20;;;;;;5072718;28;20489;-67
2022/01/28 10:31:48;;;;;;;36.20;23.45;;;231.20;1868.80;;;;;;5072980;28;20033;-74
2022/01/28 10:34:27;;;;;;;48.50;29.20;;;230.90;1945.60;;;;;;5073070;28;20052;-73
2022/01/28 10:37:19;;;;;;;62.95;38.28;;;230.50;1996.80;;;;;;5073024;28;20064;-73
2022/01/28 10:39:52;;;;;;;63.08;40.10;;;205.60;2048.00;;;;;;5071657;28;20436;-73
2022/01/28 10:42:42;;;;;;;41.80;26.83;;;205.40;2099.20;;;;;;5071634;28;20472;-72
2022/01/28 10:45:11;;;;;;;45.17;30.85;;;205.30;2099.20;;;;;;5072844;28;20025;-74
2022/01/28 10:47:48;;;;;;;36.92;23.17;;;205.70;2073.60;;;;;;5072748;28;20478;-73
2022/01/28 10:50:37;;;;;;;32.22;21.15;;;231.00;1971.20;;;;;;5071540;28;20099;-74
2022/01/28 10:53:05;;;;;;;31.30;19.25;;;256.70;1817.60;;;;;;5072878;28;20028;-73
2022/01/28 10:55:34;;;;;;;34.42;24.05;;;256.80;1740.80;;;;;;5073825;28;20028;-73
2022/01/28 10:58:02;;;;;;;38.95;21.58;;;307.50;1689.60;;;;;;5076743;28;20074;-73
2022/01/28 11:00:34;;;;;;;31.13;19.85;;;307.90;1664.00;;;;;;5076732;28;20036;-74
2022/01/28 11:03:03;;;;;;;34.55;24.60;;;308.00;1612.80;;;;;;5076932;28;20111;-71
2022/01/28 11:05:31;;;;;;;37.60;21.92;;;333.00;1587.20;;;;;;5076927;28;20396;-73
2022/01/28 11:07:58;;;;;;;35.30;17.70;;;332.90;1612.80;;;;;;5076553;28;20047;-72
2022/01/28 11:10:24;;;;;;;30.55;16.80;;;307.40;1612.80;;;;;;5076880;28;20031;-72
2022/01/28 11:12:54;;;;;;;20.60;12.45;;;307.20;1612.80;;;;;;5076605;28;20036;-73
2022/01/28 11:15:21;;;;;;;22.55;13.82;;;282.00;1612.80;;;;;;5076443;28;20500;-64
2022/01/28 11:17:48;;;;;;;22.02;12.93;;;281.60;1638.40;;;;;;5076110;28;20032;-70
2022/01/28 11:20:20;;;;;;;22.75;13.40;;;281.80;1612.80;;;;;;5075190;28;20492;-75
2022/01/28 11:23:14;;;;;;;18.33;11.63;;;281.60;1612.80;;;;;;5075985;28;20477;-72
2022/01/28 11:26:19;;;;;;;20.30;11.37;;;256.90;1587.20;;;;;;5076345;28;20021;-69
2022/01/28 11:28:53;;;;;;;20.52;12.30;;;256.60;1612.80;;;;;;5076156;28;20352;-77
2022/01/28 11:31:40;;;;;;;15.80;9.85;;;256.40;1638.40;;;;;;5076243;28;20034;-74
2022/01/28 11:34:27;;;;;;;23.10;13.05;;;231.30;1664.00;;;;;;5076217;28;20093;-77
2022/01/28 11:36:54;;;;;;;18.90;7.53;;;;;;;;;;5076196;28;20582;-75
2022/01/28 11:39:35;;;;;;;14.13;6.70;;;230.90;1689.60;;;;;;5075890;28;20020;-67
2022/01/28 11:42:11;;;;;;;23.30;10.35;;;230.80;1715.20;;;;;;5076233;28;20039;-67
2022/01/28 11:44:41;;;;;;;23.73;10.35;;;230.80;1740.80;;;;;;5075899;28;20448;-68
2022/01/28 11:47:34;;;;;;;15.48;8.43;;;230.80;1766.40;;;;;;5075523;28;20366;-72
2022/01/28 11:50:13;;;;;;;13.80;7.38;;;230.80;1740.80;;;;;;5067105;28;20039;-75
2022/01/28 11:52:48;;;;;;;21.75;11.15;;;230.90;1740.80;;;;;;5075654;28;20428;-69
2022/01/28 11:55:26;;;;;;;18.98;9.73;;;230.90;1740.80;;;;;;5075106;28;20020;-69
2022/01/28 11:58:02;;;;;;;23.88;12.07;;;230.80;1766.40;;;;;;5074208;28;20032;-67
2022/01/28 12:00:34;;;;;;;12.20;5.40;;;230.70;1817.60;;;;;;5075512;28;20457;-76
2022/01/28 12:03:01;;;;;;;11.83;6.07;;;230.60;1740.80;;;;;;5075736;28;20055;-75
2022/01/28 12:05:30;;;;;;;17.65;8.02;;;230.40;1792.00;;;;;;5075669;28;20257;-76
2022/01/28 12:07:58;;;;;;;19.98;8.70;;;205.70;1792.00;;;;;;5074256;28;20063;-70
2022/01/28 12:10:25;;;;;;;26.25;12.55;;;205.60;1792.00;;;;;;5074777;28;20078;-73
2022/01/28 12:15:24;;;;;;;12.95;7.28;;;205.50;1792.00;;;;;;5075503;28;20493;-74
2022/01/28 12:17:52;;;;;;;17.10;8.93;;;205.40;1843.20;;;;;;5075279;28;20035;-72
2022/01/28 12:20:21;;;;;;;13.52;6.53;;;205.40;1843.20;;;;;;5075147;28;20024;-69
2022/01/28 12:23:25;;;;;;;9.30;5.72;;;205.40;1843.20;;;;;;5074683;28;20041;-75
2022/01/28 12:25:56;;;;;;;20.35;13.77;;;205.50;1792.00;;;;;;5075324;28;20021;-83
2022/01/28 12:28:30;;;;;;;20.92;9.02;;;205.70;1740.80;;;;;;5075335;28;20035;-78
2022/01/28 12:31:00;;;;;;;14.85;7.57;;;230.50;1740.80;;;;;;5074912;28;20115;-75
2022/01/28 12:33:29;;;;;;;7.97;4.63;;;230.50;1740.80;;;;;;5075152;28;20028;-72
2022/01/28 12:35:57;;;;;;;6.70;3.92;;;230.50;1740.80;;;;;;5074991;28;20035;-74
2022/01/28 12:38:29;;;;;;;9.88;4.90;;;230.50;1715.20;;;;;;5073777;28;20562;-76
2022/01/28 12:40:58;;;;;;;8.13;4.07;;;230.60;1715.20;;;;;;5075095;28;20028;-78
2022/01/28 12:43:25;;;;;;;13.30;5.47;;;231.00;1689.60;;;;;;5075121;28;20111;-77
2022/01/28 12:46:04;;;;;;;10.80;6.00;;;256.60;1587.20;;;;;;5074303;28;20029;-76
2022/01/28 12:48:30;;;;;;;11.90;6.75;;;256.00;1638.40;;;;;;5075115;28;20103;-69
2022/01/28 12:50:58;;;;;;;25.98;12.18;;;230.90;1689.60;;;;;;5074987;28;20162;-71
2022/01/28 12:53:37;;;;;;;13.25;7.68;;;230.70;1740.80;;;;;;5075105;28;20028;-77
2022/01/28 12:56:04;;;;;;;9.80;5.78;;;230.50;1740.80;;;;;;5074584;28;20115;-77
2022/01/28 12:58:49;;;;;;;17.02;12.15;;;230.60;1715.20;;;;;;5074608;28;20032;-75
2022/01/28 13:01:18;;;;;;;24.67;12.50;;;230.80;1689.60;;;;;;5073733;28;20400;-76
2022/01/28 13:03:53;;;;;;;22.80;15.05;;;230.70;1689.60;;;;;;5074548;28;20021;-76
2022/01/28 13:09:20;;;;;;;18.58;11.65;;;256.40;1561.60;;;;;;5094832;28;20047;-77
2022/01/28 13:11:54;;;;;;;21.02;13.13;;;256.10;1612.80;;;;;;5094050;28;20089;-77
2022/01/28 13:14:27;;;;;;;20.45;13.30;;;231.20;1638.40;;;;;;5094665;28;20050;-72
2022/01/28 13:16:54;;;;;;;453.17;354.30;;;230.90;1664.00;;;;;;5094601;28;20381;-77
2022/01/28 13:19:20;;;;;;;82.43;67.68;;;230.80;1689.60;;;;;;5094391;28;20510;-77
2022/01/28 13:21:48;;;;;;;77.35;66.97;;;230.80;1689.60;;;;;;5094040;28;20064;-68
2022/01/28 13:24:18;;;;;;;75.30;67.70;;;230.80;1689.60;;;;;;5094453;28;20060;-77
2022/01/28 13:26:52;;;;;;;17.27;11.35;;;230.70;1689.60;;;;;;5094190;28;20051;-77
2022/01/28 13:29:18;;;;;;;11.00;6.63;;;230.50;1715.20;;;;;;5094456;28;20114;-77
2022/01/28 13:31:53;;;;;;;11.50;6.80;;;230.40;1689.60;;;;;;5093837;28;20085;-77
2022/01/28 13:34:19;;;;;;;6.50;3.65;;;230.40;1689.60;;;;;;5094262;28;20061;-77
2022/01/28 13:36:47;;;;;;;8.88;4.95;;;205.60;1638.40;;;;;;5094110;28;20067;-77
2022/01/28 13:39:15;;;;;;;4.90;3.05;;;205.50;1664.00;;;;;;5094139;28;20119;-77
2022/01/28 13:41:41;;;;;;;12.00;2.78;;;205.40;1664.00;;;;;;5093659;28;20417;-76
2022/01/28 13:44:24;;;;;;;9.88;4.30;;;205.50;1638.40;;;;;;5094385;28;20024;-77